sensor_id;sensor_type;location;lat;lon;timestamp;P1;durP1;ratioP1;P2;durP2;ratioP2
55672;SDS011;41554;45.366;20.400;2023-07-09T00:01:35;16.17;;;6.68;;
55672;SDS011;41554;45.366;20.400;2023-07-09T00:04:02;18.30;;;6.38;;
55672;SDS011;41554;45.366;20.400;2023-07-09T00:06:28;9.65;;;5.85;;
55672;SDS011;41554;45.366;20.400;2023-07-09T00:08:54;9.70;;;5.60;;
55672;SDS011;41554;45.366;20.400;2023-07-09T00:11:20;10.10;;;5.45;;
55672;SDS011;41554;45.366;20.400;2023-07-09T00:13:47;10.13;;;6.68;;
55672;SDS011;41554;45.366;20.400;2023-07-09T00:16:14;9.10;;;5.53;;
55672;SDS011;41554;45.366;20.400;2023-07-09T00:18:42;14.57;;;7.15;;
55672;SDS011;41554;45.366;20.400;2023-07-09T00:21:08;11.98;;;7.13;;
55672;SDS011;41554;45.366;20.400;2023-07-09T00:23:35;14.02;;;7.22;;
55672;SDS011;41554;45.366;20.400;2023-07-09T00:26:06;12.77;;;6.65;;
55672;SDS011;41554;45.366;20.400;2023-07-09T00:28:34;8.55;;;6.65;;
55672;SDS011;41554;45.366;20.400;2023-07-09T00:31:01;11.95;;;5.80;;
55672;SDS011;41554;45.366;20.400;2023-07-09T00:33:27;11.82;;;5.45;;
55672;SDS011;41554;45.366;20.400;2023-07-09T00:35:56;8.63;;;6.20;;
55672;SDS011;41554;45.366;20.400;2023-07-09T00:38:23;11.85;;;6.28;;
55672;SDS011;41554;45.366;20.400;2023-07-09T00:43:24;13.27;;;6.13;;
55672;SDS011;41554;45.366;20.400;2023-07-09T00:48:56;5.85;;;4.80;;
55672;SDS011;41554;45.366;20.400;2023-07-09T00:51:25;8.52;;;5.95;;
55672;SDS011;41554;45.366;20.400;2023-07-09T00:53:52;11.90;;;6.03;;
55672;SDS011;41554;45.366;20.400;2023-07-09T00:56:29;16.10;;;5.60;;
55672;SDS011;41554;45.366;20.400;2023-07-09T00:58:57;10.23;;;5.30;;
55672;SDS011;41554;45.366;20.400;2023-07-09T01:01:29;5.80;;;4.40;;
55672;SDS011;41554;45.366;20.400;2023-07-09T01:03:56;14.93;;;6.80;;
55672;SDS011;41554;45.366;20.400;2023-07-09T01:06:28;24.95;;;5.78;;
55672;SDS011;41554;45.366;20.400;2023-07-09T01:08:57;6.13;;;4.63;;
55672;SDS011;41554;45.366;20.400;2023-07-09T01:11:24;5.75;;;4.53;;
55672;SDS011;41554;45.366;20.400;2023-07-09T01:14:00;8.65;;;5.70;;
55672;SDS011;41554;45.366;20.400;2023-07-09T01:16:37;12.07;;;6.07;;
55672;SDS011;41554;45.366;20.400;2023-07-09T01:19:04;11.30;;;5.32;;
55672;SDS011;41554;45.366;20.400;2023-07-09T01:21:30;6.75;;;5.80;;
55672;SDS011;41554;45.366;20.400;2023-07-09T01:23:57;9.75;;;5.57;;
55672;SDS011;41554;45.366;20.400;2023-07-09T01:26:26;5.25;;;4.28;;
55672;SDS011;41554;45.366;20.400;2023-07-09T01:28:54;7.22;;;5.05;;
55672;SDS011;41554;45.366;20.400;2023-07-09T01:31:20;8.13;;;4.47;;
55672;SDS011;41554;45.366;20.400;2023-07-09T01:33:48;6.05;;;4.35;;
55672;SDS011;41554;45.366;20.400;2023-07-09T01:36:17;9.02;;;5.97;;
55672;SDS011;41554;45.366;20.400;2023-07-09T01:38:43;6.10;;;4.93;;
55672;SDS011;41554;45.366;20.400;2023-07-09T01:41:09;8.05;;;5.15;;
55672;SDS011;41554;45.366;20.400;2023-07-09T01:43:38;5.75;;;4.55;;
55672;SDS011;41554;45.366;20.400;2023-07-09T01:46:06;6.15;;;3.80;;
55672;SDS011;41554;45.366;20.400;2023-07-09T01:48:33;10.13;;;5.18;;
55672;SDS011;41554;45.366;20.400;2023-07-09T01:51:06;15.57;;;5.93;;
55672;SDS011;41554;45.366;20.400;2023-07-09T01:53:32;9.88;;;4.68;;
55672;SDS011;41554;45.366;20.400;2023-07-09T01:55:58;14.18;;;5.85;;
55672;SDS011;41554;45.366;20.400;2023-07-09T01:58:25;6.15;;;5.05;;
55672;SDS011;41554;45.366;20.400;2023-07-09T02:00:55;8.73;;;5.18;;
55672;SDS011;41554;45.366;20.400;2023-07-09T02:03:21;12.25;;;5.22;;
55672;SDS011;41554;45.366;20.400;2023-07-09T02:05:50;7.75;;;4.38;;
55672;SDS011;41554;45.366;20.400;2023-07-09T02:08:16;7.47;;;4.88;;
55672;SDS011;41554;45.366;20.400;2023-07-09T02:10:43;10.80;;;5.57;;
55672;SDS011;41554;45.366;20.400;2023-07-09T02:13:10;6.65;;;4.13;;
55672;SDS011;41554;45.366;20.400;2023-07-09T02:15:36;8.43;;;5.20;;
55672;SDS011;41554;45.366;20.400;2023-07-09T02:18:02;6.47;;;5.10;;
55672;SDS011;41554;45.366;20.400;2023-07-09T02:20:28;9.43;;;4.88;;
55672;SDS011;41554;45.366;20.400;2023-07-09T02:22:54;9.52;;;5.00;;
55672;SDS011;41554;45.366;20.400;2023-07-09T02:25:20;7.75;;;4.65;;
55672;SDS011;41554;45.366;20.400;2023-07-09T02:27:46;19.20;;;5.03;;
55672;SDS011;41554;45.366;20.400;2023-07-09T02:30:12;8.02;;;6.15;;
55672;SDS011;41554;45.366;20.400;2023-07-09T02:32:38;6.57;;;5.13;;
55672;SDS011;41554;45.366;20.400;2023-07-09T02:35:06;8.90;;;6.43;;
55672;SDS011;41554;45.366;20.400;2023-07-09T02:37:32;9.68;;;4.88;;
55672;SDS011;41554;45.366;20.400;2023-07-09T02:39:58;11.27;;;6.22;;
55672;SDS011;41554;45.366;20.400;2023-07-09T02:42:24;7.65;;;4.72;;
55672;SDS011;41554;45.366;20.400;2023-07-09T02:44:50;4.60;;;4.18;;
55672;SDS011;41554;45.366;20.400;2023-07-09T02:47:16;10.07;;;4.82;;
55672;SDS011;41554;45.366;20.400;2023-07-09T02:49:42;6.72;;;5.53;;
55672;SDS011;41554;45.366;20.400;2023-07-09T02:52:09;8.45;;;5.35;;
55672;SDS011;41554;45.366;20.400;2023-07-09T02:54:35;8.35;;;6.45;;
55672;SDS011;41554;45.366;20.400;2023-07-09T02:57:01;7.53;;;5.60;;
55672;SDS011;41554;45.366;20.400;2023-07-09T02:59:27;13.75;;;6.85;;
55672;SDS011;41554;45.366;20.400;2023-07-09T03:01:54;6.45;;;4.55;;
55672;SDS011;41554;45.366;20.400;2023-07-09T03:04:20;7.75;;;5.53;;
55672;SDS011;41554;45.366;20.400;2023-07-09T03:06:47;7.47;;;5.03;;
55672;SDS011;41554;45.366;20.400;2023-07-09T03:09:13;8.57;;;4.82;;
55672;SDS011;41554;45.366;20.400;2023-07-09T03:11:39;7.47;;;4.88;;
55672;SDS011;41554;45.366;20.400;2023-07-09T03:14:05;5.68;;;4.18;;
55672;SDS011;41554;45.366;20.400;2023-07-09T03:16:32;12.65;;;5.35;;
55672;SDS011;41554;45.366;20.400;2023-07-09T03:18:58;8.90;;;5.50;;
55672;SDS011;41554;45.366;20.400;2023-07-09T03:21:25;8.07;;;4.35;;
55672;SDS011;41554;45.366;20.400;2023-07-09T03:23:52;6.32;;;5.15;;
55672;SDS011;41554;45.366;20.400;2023-07-09T03:26:18;6.72;;;5.40;;
55672;SDS011;41554;45.366;20.400;2023-07-09T03:28:44;6.35;;;4.80;;
55672;SDS011;41554;45.366;20.400;2023-07-09T03:31:10;8.38;;;4.70;;
55672;SDS011;41554;45.366;20.400;2023-07-09T03:33:36;8.50;;;4.57;;
55672;SDS011;41554;45.366;20.400;2023-07-09T03:36:03;12.35;;;6.25;;
55672;SDS011;41554;45.366;20.400;2023-07-09T03:38:29;9.65;;;5.32;;
55672;SDS011;41554;45.366;20.400;2023-07-09T03:40:56;13.77;;;6.05;;
55672;SDS011;41554;45.366;20.400;2023-07-09T03:43:22;7.25;;;4.65;;
55672;SDS011;41554;45.366;20.400;2023-07-09T03:45:49;10.30;;;5.45;;
55672;SDS011;41554;45.366;20.400;2023-07-09T03:48:16;4.95;;;3.53;;
55672;SDS011;41554;45.366;20.400;2023-07-09T03:50:43;9.45;;;6.18;;
55672;SDS011;41554;45.366;20.400;2023-07-09T03:53:09;10.60;;;4.47;;
55672;SDS011;41554;45.366;20.400;2023-07-09T03:55:35;8.00;;;5.80;;
55672;SDS011;41554;45.366;20.400;2023-07-09T03:58:02;17.95;;;5.97;;
55672;SDS011;41554;45.366;20.400;2023-07-09T04:00:28;8.50;;;5.80;;
55672;SDS011;41554;45.366;20.400;2023-07-09T04:02:55;10.65;;;4.90;;
55672;SDS011;41554;45.366;20.400;2023-07-09T04:05:22;7.20;;;6.10;;
55672;SDS011;41554;45.366;20.400;2023-07-09T04:07:48;8.93;;;5.07;;
55672;SDS011;41554;45.366;20.400;2023-07-09T04:10:14;7.57;;;4.63;;
55672;SDS011;41554;45.366;20.400;2023-07-09T04:12:40;7.85;;;4.13;;
55672;SDS011;41554;45.366;20.400;2023-07-09T04:15:07;13.27;;;5.32;;
55672;SDS011;41554;45.366;20.400;2023-07-09T04:17:33;6.47;;;4.40;;
55672;SDS011;41554;45.366;20.400;2023-07-09T04:19:59;6.40;;;4.05;;
55672;SDS011;41554;45.366;20.400;2023-07-09T04:22:25;4.68;;;3.55;;
55672;SDS011;41554;45.366;20.400;2023-07-09T04:24:51;25.15;;;5.60;;
55672;SDS011;41554;45.366;20.400;2023-07-09T04:27:18;12.07;;;5.25;;
55672;SDS011;41554;45.366;20.400;2023-07-09T04:29:44;9.77;;;4.85;;
55672;SDS011;41554;45.366;20.400;2023-07-09T04:32:11;7.93;;;4.45;;
55672;SDS011;41554;45.366;20.400;2023-07-09T04:34:38;6.38;;;4.55;;
55672;SDS011;41554;45.366;20.400;2023-07-09T04:37:07;15.20;;;5.45;;
55672;SDS011;41554;45.366;20.400;2023-07-09T04:42:00;5.85;;;3.83;;
55672;SDS011;41554;45.366;20.400;2023-07-09T04:44:26;5.82;;;3.72;;
55672;SDS011;41554;45.366;20.400;2023-07-09T04:46:53;11.32;;;4.68;;
55672;SDS011;41554;45.366;20.400;2023-07-09T04:49:19;8.48;;;2.95;;
55672;SDS011;41554;45.366;20.400;2023-07-09T04:51:45;10.32;;;4.68;;
55672;SDS011;41554;45.366;20.400;2023-07-09T04:54:11;9.52;;;3.67;;
55672;SDS011;41554;45.366;20.400;2023-07-09T04:56:40;7.00;;;5.07;;
55672;SDS011;41554;45.366;20.400;2023-07-09T04:59:10;10.57;;;4.82;;
55672;SDS011;41554;45.366;20.400;2023-07-09T05:01:36;6.47;;;4.32;;
55672;SDS011;41554;45.366;20.400;2023-07-09T05:04:02;11.23;;;5.43;;
55672;SDS011;41554;45.366;20.400;2023-07-09T05:06:28;7.88;;;5.18;;
55672;SDS011;41554;45.366;20.400;2023-07-09T05:08:54;7.03;;;4.45;;
55672;SDS011;41554;45.366;20.400;2023-07-09T05:11:20;6.15;;;4.82;;
55672;SDS011;41554;45.366;20.400;2023-07-09T05:13:46;9.43;;;4.75;;
55672;SDS011;41554;45.366;20.400;2023-07-09T05:16:13;9.60;;;5.00;;
55672;SDS011;41554;45.366;20.400;2023-07-09T05:18:40;12.13;;;5.50;;
55672;SDS011;41554;45.366;20.400;2023-07-09T05:21:06;11.82;;;5.07;;
55672;SDS011;41554;45.366;20.400;2023-07-09T05:23:32;5.47;;;4.35;;
55672;SDS011;41554;45.366;20.400;2023-07-09T05:25:58;6.45;;;4.70;;
55672;SDS011;41554;45.366;20.400;2023-07-09T05:28:25;13.52;;;4.40;;
55672;SDS011;41554;45.366;20.400;2023-07-09T05:30:51;12.18;;;5.05;;
55672;SDS011;41554;45.366;20.400;2023-07-09T05:33:17;12.02;;;5.35;;
55672;SDS011;41554;45.366;20.400;2023-07-09T05:35:44;11.25;;;4.68;;
55672;SDS011;41554;45.366;20.400;2023-07-09T05:38:11;8.95;;;4.47;;
55672;SDS011;41554;45.366;20.400;2023-07-09T05:40:37;8.35;;;4.72;;
55672;SDS011;41554;45.366;20.400;2023-07-09T05:43:03;6.88;;;5.15;;
55672;SDS011;41554;45.366;20.400;2023-07-09T05:45:29;7.03;;;4.70;;
55672;SDS011;41554;45.366;20.400;2023-07-09T05:47:57;7.25;;;5.15;;
55672;SDS011;41554;45.366;20.400;2023-07-09T05:50:23;11.38;;;3.92;;
55672;SDS011;41554;45.366;20.400;2023-07-09T05:52:49;6.07;;;3.63;;
55672;SDS011;41554;45.366;20.400;2023-07-09T05:55:15;6.50;;;3.90;;
55672;SDS011;41554;45.366;20.400;2023-07-09T05:57:41;7.63;;;5.18;;
55672;SDS011;41554;45.366;20.400;2023-07-09T06:00:07;5.63;;;4.03;;
55672;SDS011;41554;45.366;20.400;2023-07-09T06:02:33;7.22;;;4.70;;
55672;SDS011;41554;45.366;20.400;2023-07-09T06:05:00;6.05;;;3.70;;
55672;SDS011;41554;45.366;20.400;2023-07-09T06:07:26;12.45;;;4.07;;
55672;SDS011;41554;45.366;20.400;2023-07-09T06:09:53;10.25;;;3.97;;
55672;SDS011;41554;45.366;20.400;2023-07-09T06:12:19;4.93;;;3.38;;
55672;SDS011;41554;45.366;20.400;2023-07-09T06:14:45;5.97;;;4.40;;
55672;SDS011;41554;45.366;20.400;2023-07-09T06:17:11;6.05;;;3.03;;
55672;SDS011;41554;45.366;20.400;2023-07-09T06:19:38;6.93;;;4.85;;
55672;SDS011;41554;45.366;20.400;2023-07-09T06:22:04;5.15;;;3.90;;
55672;SDS011;41554;45.366;20.400;2023-07-09T06:24:31;5.90;;;4.40;;
55672;SDS011;41554;45.366;20.400;2023-07-09T06:26:57;6.05;;;3.90;;
55672;SDS011;41554;45.366;20.400;2023-07-09T06:29:24;8.13;;;4.75;;
55672;SDS011;41554;45.366;20.400;2023-07-09T06:31:50;5.57;;;3.80;;
55672;SDS011;41554;45.366;20.400;2023-07-09T06:34:16;4.47;;;3.63;;
55672;SDS011;41554;45.366;20.400;2023-07-09T06:36:42;4.82;;;3.38;;
55672;SDS011;41554;45.366;20.400;2023-07-09T06:39:08;10.35;;;4.47;;
55672;SDS011;41554;45.366;20.400;2023-07-09T06:41:35;6.22;;;4.60;;
55672;SDS011;41554;45.366;20.400;2023-07-09T06:44:04;6.53;;;3.90;;
55672;SDS011;41554;45.366;20.400;2023-07-09T06:46:31;5.43;;;4.25;;
55672;SDS011;41554;45.366;20.400;2023-07-09T06:48:57;6.05;;;4.40;;
55672;SDS011;41554;45.366;20.400;2023-07-09T06:51:23;5.75;;;3.85;;
55672;SDS011;41554;45.366;20.400;2023-07-09T06:53:49;8.27;;;3.88;;
55672;SDS011;41554;45.366;20.400;2023-07-09T06:56:16;4.82;;;4.20;;
55672;SDS011;41554;45.366;20.400;2023-07-09T06:58:42;6.68;;;3.60;;
55672;SDS011;41554;45.366;20.400;2023-07-09T07:01:11;5.15;;;3.90;;
55672;SDS011;41554;45.366;20.400;2023-07-09T07:03:37;7.75;;;4.18;;
55672;SDS011;41554;45.366;20.400;2023-07-09T07:06:03;7.40;;;3.55;;
55672;SDS011;41554;45.366;20.400;2023-07-09T07:08:31;5.13;;;4.40;;
55672;SDS011;41554;45.366;20.400;2023-07-09T07:10:59;4.03;;;3.63;;
55672;SDS011;41554;45.366;20.400;2023-07-09T07:13:30;5.22;;;3.78;;
55672;SDS011;41554;45.366;20.400;2023-07-09T07:15:56;17.05;;;3.78;;
55672;SDS011;41554;45.366;20.400;2023-07-09T07:18:22;11.77;;;4.25;;
55672;SDS011;41554;45.366;20.400;2023-07-09T07:20:48;9.43;;;4.53;;
55672;SDS011;41554;45.366;20.400;2023-07-09T07:23:15;6.20;;;3.53;;
55672;SDS011;41554;45.366;20.400;2023-07-09T07:25:42;3.38;;;2.63;;
55672;SDS011;41554;45.366;20.400;2023-07-09T07:28:08;6.78;;;3.90;;
55672;SDS011;41554;45.366;20.400;2023-07-09T07:30:34;17.60;;;6.43;;
55672;SDS011;41554;45.366;20.400;2023-07-09T07:33:00;12.77;;;4.05;;
55672;SDS011;41554;45.366;20.400;2023-07-09T07:35:26;4.95;;;3.42;;
55672;SDS011;41554;45.366;20.400;2023-07-09T07:37:52;7.97;;;4.30;;
55672;SDS011;41554;45.366;20.400;2023-07-09T07:40:18;4.78;;;3.90;;
55672;SDS011;41554;45.366;20.400;2023-07-09T07:42:44;5.57;;;3.65;;
55672;SDS011;41554;45.366;20.400;2023-07-09T07:45:11;5.15;;;3.60;;
55672;SDS011;41554;45.366;20.400;2023-07-09T07:47:37;6.82;;;3.47;;
55672;SDS011;41554;45.366;20.400;2023-07-09T07:50:04;6.18;;;3.95;;
55672;SDS011;41554;45.366;20.400;2023-07-09T07:52:30;14.10;;;3.80;;
55672;SDS011;41554;45.366;20.400;2023-07-09T07:54:56;6.07;;;4.43;;
55672;SDS011;41554;45.366;20.400;2023-07-09T07:57:25;6.90;;;4.50;;
55672;SDS011;41554;45.366;20.400;2023-07-09T07:59:51;6.60;;;4.35;;
55672;SDS011;41554;45.366;20.400;2023-07-09T08:02:17;9.63;;;4.15;;
55672;SDS011;41554;45.366;20.400;2023-07-09T08:04:43;9.48;;;3.95;;
55672;SDS011;41554;45.366;20.400;2023-07-09T08:07:10;4.20;;;3.50;;
55672;SDS011;41554;45.366;20.400;2023-07-09T08:09:36;6.32;;;3.22;;
55672;SDS011;41554;45.366;20.400;2023-07-09T08:12:03;4.57;;;3.13;;
55672;SDS011;41554;45.366;20.400;2023-07-09T08:14:35;12.32;;;3.88;;
55672;SDS011;41554;45.366;20.400;2023-07-09T08:17:01;7.10;;;4.13;;
55672;SDS011;41554;45.366;20.400;2023-07-09T08:19:27;5.47;;;3.35;;
55672;SDS011;41554;45.366;20.400;2023-07-09T08:21:53;5.95;;;4.07;;
55672;SDS011;41554;45.366;20.400;2023-07-09T08:24:19;6.78;;;3.50;;
55672;SDS011;41554;45.366;20.400;2023-07-09T08:26:46;6.97;;;3.50;;
55672;SDS011;41554;45.366;20.400;2023-07-09T08:29:12;3.97;;;3.17;;
55672;SDS011;41554;45.366;20.400;2023-07-09T08:31:38;9.70;;;3.13;;
55672;SDS011;41554;45.366;20.400;2023-07-09T08:34:05;5.10;;;3.92;;
55672;SDS011;41554;45.366;20.400;2023-07-09T08:36:32;5.60;;;3.60;;
55672;SDS011;41554;45.366;20.400;2023-07-09T08:38:58;4.60;;;3.15;;
55672;SDS011;41554;45.366;20.400;2023-07-09T08:41:26;7.95;;;3.72;;
55672;SDS011;41554;45.366;20.400;2023-07-09T08:44:03;3.55;;;3.17;;
55672;SDS011;41554;45.366;20.400;2023-07-09T08:46:38;4.68;;;3.63;;
55672;SDS011;41554;45.366;20.400;2023-07-09T08:49:12;4.05;;;3.30;;
55672;SDS011;41554;45.366;20.400;2023-07-09T08:51:40;14.35;;;3.78;;
55672;SDS011;41554;45.366;20.400;2023-07-09T08:54:27;5.38;;;3.95;;
55672;SDS011;41554;45.366;20.400;2023-07-09T08:56:54;7.70;;;4.07;;
55672;SDS011;41554;45.366;20.400;2023-07-09T08:59:20;6.43;;;4.57;;
55672;SDS011;41554;45.366;20.400;2023-07-09T09:01:51;5.50;;;3.72;;
55672;SDS011;41554;45.366;20.400;2023-07-09T09:04:31;5.82;;;3.67;;
55672;SDS011;41554;45.366;20.400;2023-07-09T09:09:44;4.07;;;2.95;;
55672;SDS011;41554;45.366;20.400;2023-07-09T09:12:19;5.07;;;4.10;;
55672;SDS011;41554;45.366;20.400;2023-07-09T09:14:52;8.32;;;3.83;;
55672;SDS011;41554;45.366;20.400;2023-07-09T09:17:23;4.78;;;4.13;;
55672;SDS011;41554;45.366;20.400;2023-07-09T09:19:55;5.43;;;3.40;;
55672;SDS011;41554;45.366;20.400;2023-07-09T09:22:23;8.38;;;4.03;;
55672;SDS011;41554;45.366;20.400;2023-07-09T09:27:19;7.82;;;4.38;;
55672;SDS011;41554;45.366;20.400;2023-07-09T09:29:45;5.80;;;4.15;;
55672;SDS011;41554;45.366;20.400;2023-07-09T09:32:27;10.85;;;4.57;;
55672;SDS011;41554;45.366;20.400;2023-07-09T09:34:54;7.95;;;4.63;;
55672;SDS011;41554;45.366;20.400;2023-07-09T09:37:30;7.85;;;3.83;;
55672;SDS011;41554;45.366;20.400;2023-07-09T09:39:58;9.07;;;4.25;;
55672;SDS011;41554;45.366;20.400;2023-07-09T09:42:24;6.38;;;3.53;;
55672;SDS011;41554;45.366;20.400;2023-07-09T09:44:53;5.97;;;3.45;;
55672;SDS011;41554;45.366;20.400;2023-07-09T09:47:19;8.23;;;4.32;;
55672;SDS011;41554;45.366;20.400;2023-07-09T09:49:45;5.47;;;3.95;;
55672;SDS011;41554;45.366;20.400;2023-07-09T09:52:15;3.85;;;3.10;;
55672;SDS011;41554;45.366;20.400;2023-07-09T09:55:09;5.82;;;3.97;;
55672;SDS011;41554;45.366;20.400;2023-07-09T09:57:30;4.97;;;3.13;;
55672;SDS011;41554;45.366;20.400;2023-07-09T09:59:56;5.10;;;3.75;;
55672;SDS011;41554;45.366;20.400;2023-07-09T10:02:23;13.00;;;3.33;;
55672;SDS011;41554;45.366;20.400;2023-07-09T10:04:50;9.15;;;4.20;;
55672;SDS011;41554;45.366;20.400;2023-07-09T10:07:39;4.68;;;3.33;;
55672;SDS011;41554;45.366;20.400;2023-07-09T10:10:02;14.38;;;3.58;;
55672;SDS011;41554;45.366;20.400;2023-07-09T10:12:36;7.18;;;3.45;;
55672;SDS011;41554;45.366;20.400;2023-07-09T10:17:38;5.82;;;4.38;;
55672;SDS011;41554;45.366;20.400;2023-07-09T10:20:07;6.55;;;4.30;;
55672;SDS011;41554;45.366;20.400;2023-07-09T10:32:57;7.18;;;4.03;;
55672;SDS011;41554;45.366;20.400;2023-07-09T10:40:39;4.85;;;3.25;;
55672;SDS011;41554;45.366;20.400;2023-07-09T10:43:09;7.55;;;3.80;;
55672;SDS011;41554;45.366;20.400;2023-07-09T10:45:40;6.63;;;3.17;;
55672;SDS011;41554;45.366;20.400;2023-07-09T10:48:17;5.70;;;4.30;;
55672;SDS011;41554;45.366;20.400;2023-07-09T10:50:51;6.90;;;3.97;;
55672;SDS011;41554;45.366;20.400;2023-07-09T11:00:59;5.97;;;4.07;;
55672;SDS011;41554;45.366;20.400;2023-07-09T11:03:33;4.20;;;3.33;;
55672;SDS011;41554;45.366;20.400;2023-07-09T11:06:01;4.85;;;3.67;;
55672;SDS011;41554;45.366;20.400;2023-07-09T11:08:46;7.45;;;3.90;;
55672;SDS011;41554;45.366;20.400;2023-07-09T11:11:28;5.65;;;3.75;;
55672;SDS011;41554;45.366;20.400;2023-07-09T11:13:58;6.43;;;3.83;;
55672;SDS011;41554;45.366;20.400;2023-07-09T11:16:29;6.63;;;4.03;;
55672;SDS011;41554;45.366;20.400;2023-07-09T11:19:00;6.72;;;3.55;;
55672;SDS011;41554;45.366;20.400;2023-07-09T11:21:26;9.70;;;3.83;;
55672;SDS011;41554;45.366;20.400;2023-07-09T11:23:53;10.13;;;4.93;;
55672;SDS011;41554;45.366;20.400;2023-07-09T11:26:30;4.75;;;3.78;;
55672;SDS011;41554;45.366;20.400;2023-07-09T11:31:34;5.20;;;3.88;;
55672;SDS011;41554;45.366;20.400;2023-07-09T11:34:07;4.88;;;3.88;;
55672;SDS011;41554;45.366;20.400;2023-07-09T11:36:35;5.38;;;3.85;;
55672;SDS011;41554;45.366;20.400;2023-07-09T11:39:18;6.15;;;4.03;;
55672;SDS011;41554;45.366;20.400;2023-07-09T11:41:45;5.18;;;3.60;;
55672;SDS011;41554;45.366;20.400;2023-07-09T11:44:30;6.13;;;3.90;;
55672;SDS011;41554;45.366;20.400;2023-07-09T11:52:14;22.17;;;4.60;;
55672;SDS011;41554;45.366;20.400;2023-07-09T11:54:43;5.22;;;3.47;;
55672;SDS011;41554;45.366;20.400;2023-07-09T11:57:12;6.43;;;4.20;;
55672;SDS011;41554;45.366;20.400;2023-07-09T11:59:41;3.75;;;3.42;;
55672;SDS011;41554;45.366;20.400;2023-07-09T12:02:13;4.90;;;3.25;;
55672;SDS011;41554;45.366;20.400;2023-07-09T12:04:41;7.63;;;3.72;;
55672;SDS011;41554;45.366;20.400;2023-07-09T12:07:09;19.85;;;6.55;;
55672;SDS011;41554;45.366;20.400;2023-07-09T12:09:39;6.18;;;3.95;;
55672;SDS011;41554;45.366;20.400;2023-07-09T12:12:17;9.38;;;4.22;;
55672;SDS011;41554;45.366;20.400;2023-07-09T12:14:43;5.95;;;3.97;;
55672;SDS011;41554;45.366;20.400;2023-07-09T12:17:09;12.85;;;3.30;;
55672;SDS011;41554;45.366;20.400;2023-07-09T12:19:35;5.57;;;3.88;;
55672;SDS011;41554;45.366;20.400;2023-07-09T12:22:01;3.95;;;3.08;;
55672;SDS011;41554;45.366;20.400;2023-07-09T12:24:30;3.55;;;3.13;;
55672;SDS011;41554;45.366;20.400;2023-07-09T12:26:57;4.93;;;4.07;;
55672;SDS011;41554;45.366;20.400;2023-07-09T12:29:28;4.75;;;3.55;;
55672;SDS011;41554;45.366;20.400;2023-07-09T12:31:58;5.28;;;3.25;;
55672;SDS011;41554;45.366;20.400;2023-07-09T12:34:24;3.78;;;3.33;;
55672;SDS011;41554;45.366;20.400;2023-07-09T12:36:51;6.93;;;3.13;;
55672;SDS011;41554;45.366;20.400;2023-07-09T12:39:28;7.05;;;3.72;;
55672;SDS011;41554;45.366;20.400;2023-07-09T12:41:56;5.03;;;3.30;;
55672;SDS011;41554;45.366;20.400;2023-07-09T12:44:23;4.10;;;3.28;;
55672;SDS011;41554;45.366;20.400;2023-07-09T12:46:50;3.85;;;2.88;;
55672;SDS011;41554;45.366;20.400;2023-07-09T12:49:20;3.67;;;3.00;;
55672;SDS011;41554;45.366;20.400;2023-07-09T12:51:47;6.63;;;4.13;;
55672;SDS011;41554;45.366;20.400;2023-07-09T12:54:14;4.10;;;3.00;;
55672;SDS011;41554;45.366;20.400;2023-07-09T12:56:40;4.38;;;3.28;;
55672;SDS011;41554;45.366;20.400;2023-07-09T13:01:49;3.17;;;2.78;;
55672;SDS011;41554;45.366;20.400;2023-07-09T13:04:15;6.82;;;3.67;;
55672;SDS011;41554;45.366;20.400;2023-07-09T13:06:41;3.58;;;3.00;;
55672;SDS011;41554;45.366;20.400;2023-07-09T13:09:13;15.68;;;3.25;;
55672;SDS011;41554;45.366;20.400;2023-07-09T13:11:41;4.35;;;2.88;;
55672;SDS011;41554;45.366;20.400;2023-07-09T13:14:11;5.68;;;3.72;;
55672;SDS011;41554;45.366;20.400;2023-07-09T13:16:41;4.25;;;3.22;;
55672;SDS011;41554;45.366;20.400;2023-07-09T13:19:07;3.60;;;3.15;;
55672;SDS011;41554;45.366;20.400;2023-07-09T13:21:34;5.30;;;4.13;;
55672;SDS011;41554;45.366;20.400;2023-07-09T13:24:04;4.05;;;3.30;;
55672;SDS011;41554;45.366;20.400;2023-07-09T13:26:30;4.35;;;3.03;;
55672;SDS011;41554;45.366;20.400;2023-07-09T13:28:56;10.35;;;4.50;;
55672;SDS011;41554;45.366;20.400;2023-07-09T13:31:23;4.50;;;3.50;;
55672;SDS011;41554;45.366;20.400;2023-07-09T13:33:56;5.25;;;3.35;;
55672;SDS011;41554;45.366;20.400;2023-07-09T13:36:24;3.95;;;3.28;;
55672;SDS011;41554;45.366;20.400;2023-07-09T13:38:50;4.93;;;3.30;;
55672;SDS011;41554;45.366;20.400;2023-07-09T13:41:17;4.97;;;4.10;;
55672;SDS011;41554;45.366;20.400;2023-07-09T13:43:47;5.07;;;4.03;;
55672;SDS011;41554;45.366;20.400;2023-07-09T13:46:13;4.10;;;3.08;;
55672;SDS011;41554;45.366;20.400;2023-07-09T13:48:40;6.05;;;4.25;;
55672;SDS011;41554;45.366;20.400;2023-07-09T13:51:17;4.85;;;3.08;;
55672;SDS011;41554;45.366;20.400;2023-07-09T13:53:44;6.10;;;3.58;;
55672;SDS011;41554;45.366;20.400;2023-07-09T13:56:10;3.65;;;2.97;;
55672;SDS011;41554;45.366;20.400;2023-07-09T13:58:36;4.38;;;2.92;;
55672;SDS011;41554;45.366;20.400;2023-07-09T14:01:13;6.22;;;3.20;;
55672;SDS011;41554;45.366;20.400;2023-07-09T14:03:39;5.43;;;3.83;;
55672;SDS011;41554;45.366;20.400;2023-07-09T14:06:08;5.75;;;3.80;;
55672;SDS011;41554;45.366;20.400;2023-07-09T14:08:34;6.40;;;4.20;;
55672;SDS011;41554;45.366;20.400;2023-07-09T14:11:00;8.23;;;3.97;;
55672;SDS011;41554;45.366;20.400;2023-07-09T14:13:26;4.32;;;2.72;;
55672;SDS011;41554;45.366;20.400;2023-07-09T14:15:56;3.88;;;3.15;;
55672;SDS011;41554;45.366;20.400;2023-07-09T14:18:22;4.40;;;3.40;;
55672;SDS011;41554;45.366;20.400;2023-07-09T14:20:49;5.93;;;3.97;;
55672;SDS011;41554;45.366;20.400;2023-07-09T14:23:16;4.32;;;3.47;;
55672;SDS011;41554;45.366;20.400;2023-07-09T14:25:42;5.97;;;3.35;;
55672;SDS011;41554;45.366;20.400;2023-07-09T14:28:10;4.03;;;3.28;;
55672;SDS011;41554;45.366;20.400;2023-07-09T14:30:36;8.18;;;4.18;;
55672;SDS011;41554;45.366;20.400;2023-07-09T14:33:02;8.85;;;3.85;;
55672;SDS011;41554;45.366;20.400;2023-07-09T14:35:29;4.32;;;3.05;;
55672;SDS011;41554;45.366;20.400;2023-07-09T14:37:55;3.70;;;3.22;;
55672;SDS011;41554;45.366;20.400;2023-07-09T14:40:24;8.18;;;3.72;;
55672;SDS011;41554;45.366;20.400;2023-07-09T14:42:50;4.93;;;3.20;;
55672;SDS011;41554;45.366;20.400;2023-07-09T14:47:42;4.07;;;3.35;;
55672;SDS011;41554;45.366;20.400;2023-07-09T14:50:09;5.72;;;4.07;;
55672;SDS011;41554;45.366;20.400;2023-07-09T14:52:35;11.93;;;4.72;;
55672;SDS011;41554;45.366;20.400;2023-07-09T14:55:01;6.05;;;3.75;;
55672;SDS011;41554;45.366;20.400;2023-07-09T14:57:28;8.85;;;4.25;;
55672;SDS011;41554;45.366;20.400;2023-07-09T14:59:55;6.47;;;3.47;;
55672;SDS011;41554;45.366;20.400;2023-07-09T15:04:49;12.52;;;3.70;;
55672;SDS011;41554;45.366;20.400;2023-07-09T15:07:15;4.65;;;2.92;;
55672;SDS011;41554;45.366;20.400;2023-07-09T15:09:41;8.70;;;3.97;;
55672;SDS011;41554;45.366;20.400;2023-07-09T15:12:16;3.45;;;3.15;;
55672;SDS011;41554;45.366;20.400;2023-07-09T15:14:42;4.88;;;4.05;;
55672;SDS011;41554;45.366;20.400;2023-07-09T15:17:12;4.68;;;3.67;;
55672;SDS011;41554;45.366;20.400;2023-07-09T15:19:38;5.90;;;3.17;;
55672;SDS011;41554;45.366;20.400;2023-07-09T15:22:04;6.65;;;4.00;;
55672;SDS011;41554;45.366;20.400;2023-07-09T15:24:34;5.43;;;3.38;;
55672;SDS011;41554;45.366;20.400;2023-07-09T15:27:00;10.80;;;3.92;;
55672;SDS011;41554;45.366;20.400;2023-07-09T15:29:27;5.10;;;3.67;;